Warrington, United Kingdom
Current Conditions -  °F | °C
As of 9:50 AM on Saturday 25 Oct 2014 (Local Time) from EGGP Reporting Station
Rain Showers Rain Showers  
Wind Chill: 10°   Ceiling: 3800
Heat Index: 10°   Visibility: 6mi
Dew Point:   Wind: 7mph
Humidity: 94%   Direction: 170°S
Pressure: 29.94"   Gusts: NA
Location:  53.39°N, 2.59°W
Report Text: EGGP 250850Z 17006KT 130V240 9999 4000W VCSH BKN038 10/09 Q1014
Loading
Personal Weather Stations






























Interactive Weather Map
Tropical Storm Tracking
New forecast layout! Learn more

10-Day Weather Forecast

Advertisements
Track Severe Weather on mobile